Sanford, Florida
Current Conditions -  °F | °C
As of 10:53 AM on Tuesday 27 Jan 2015 (Local Time) from KSFB Reporting Station
Clear Clear  
Wind Chill: 58°   Ceiling: Unl
Heat Index: 58°   Visibility: 10mi
Dew Point: 35°   Wind: 17mph
Humidity: 42%   Direction: 300°WNW
Pressure: 30.04"   Gusts: 24mph
Location:  28.81°N, 81.27°W
Report Text: KSFB 271553Z 30015G21KT 10SM CLR 14/02 A3004 RMK AO2 SLP171 T01440017
Loading
Personal Weather Stations






























Interactive Weather Map New forecast layout! Learn more

10-Day Weather Forecast

Advertisements
Track Severe Weather on mobile